N6EQ Weather Reports


time (UTC)temp
C
wind
direction
speed
KPH
gust
KPH
rain 1hr
cm
rain 24hr
cm
rain mn
cm
humidity
%
barometer
mb
20240723044540 37 116 25.7 43.5 0.00 0.00 0.00 25 948.2
20240723043153 37 90 37.0 51.5 0.00 0.00 0.00 26 948.2
20240723041627 36 81 29.0 46.7 0.00 0.00 0.00 27 947.9
20240723040127 36 65 35.4 51.5 0.00 0.00 0.00 28 947.8
20240723033031 36 84 30.6 70.8 0.00 0.00 0.00 28 948.0
20240723031519 35 77 56.3 77.2 0.00 0.00 0.00 29 947.6
20240723030014 35 64 53.1 74.0 0.00 0.00 0.00 30 947.4
20240723024509 37 79 45.1 75.6 0.00 0.00 0.00 28 947.3
20240723023007 41 86 14.5 27.4 0.00 0.00 0.00 24 946.7
20240723021509 41 111 17.7 29.0 0.00 0.00 0.00 24 946.3
20240723020006 42 115 6.4 14.5 0.00 0.00 0.00 22 946.2
20240723014505 43 134 3.2 11.3 0.00 0.00 0.00 20 946.2
20240723013004 43 183 6.4 9.7 0.00 0.00 0.00 20 946.1
20240723011509 42 181 3.2 11.3 0.00 0.00 0.00 21 946.0
20240723010003 42 120 4.8 11.3 0.00 0.00 0.00 21 946.0
20240723004500 42 136 9.7 14.5 0.00 0.00 0.00 21 946.0
20240723003130 43 248 6.4 14.5 0.00 0.00 0.00 21 946.0
20240723001559 43 213 3.2 16.1 0.00 0.00 0.00 20 945.9
20240723000100 43 29 0.0 8.0 0.00 0.00 0.00 20 945.9
20240722234553 42 351 6.4 11.3 0.00 0.00 0.00 21 946.0
20240722233049 42 137 4.8 12.9 0.00 0.00 0.00 22 946.1
20240722231557 42 181 6.4 11.3 0.00 0.00 0.00 22 946.4
20240722230044 42 242 9.7 20.9 0.00 0.00 0.00 23 946.6
20240722224543 41 280 9.7 17.7 0.00 0.00 0.00 23 946.7
20240722223041 41 236 12.9 22.5 0.00 0.00 0.00 23 946.8
20240722221640 41 206 11.3 22.5 0.00 0.00 0.00 24 947.0
20240722220038 41 280 8.0 20.9 0.00 0.00 0.00 25 947.2
20240722214542 42 236 11.3 25.7 0.00 0.00 0.00 24 947.5
20240722213044 42 224 16.1 30.6 0.00 0.00 0.00 25 947.8
20240722211533 42 232 3.2 20.9 0.00 0.00 0.00 25 947.9
20240722210026 42 210 14.5 24.1 0.00 0.00 0.00 25 948.1
20240722204530 41 239 17.7 24.1 0.00 0.00 0.00 26 948.5
20240722203016 41 213 6.4 20.9 0.00 0.00 0.00 26 948.5
20240722201518 41 237 12.9 27.4 0.00 0.00 0.00 26 948.8
20240722200012 41 236 14.5 22.5 0.00 0.00 0.00 27 948.9
20240722194508 41 190 12.9 24.1 0.00 0.00 0.00 27 949.2
20240722193002 40 253 8.0 19.3 0.00 0.00 0.00 28 949.3
20240722191557 40 233 8.0 20.9 0.00 0.00 0.00 28 949.5
20240722190053 40 245 12.9 19.3 0.00 0.00 0.00 28 949.7
20240722184557 39 231 4.8 20.9 0.00 0.00 0.00 29 949.9
20240722183051 40 229 9.7 20.9 0.00 0.00 0.00 29 950.1
20240722181542 39 223 14.5 25.7 0.00 0.00 0.00 30 950.1
20240722180038 39 184 11.3 19.3 0.00 0.00 0.00 29 950.2
20240722174534 38 116 12.9 24.1 0.00 0.00 0.00 30 950.4
20240722173031 38 228 8.0 20.9 0.00 0.00 0.00 30 950.5
20240722171526 38 206 11.3 20.9 0.00 0.00 0.00 30 950.6
20240722170020 38 240 12.9 24.1 0.00 0.00 0.00 31 950.7
20240722164516 37 152 9.7 25.7 0.00 0.00 0.00 31 950.6
20240722163011 37 239 19.3 27.4 0.00 0.00 0.00 31 950.6
20240722161520 37 243 17.7 25.7 0.00 0.00 0.00 32 950.7
20240722160004 36 240 12.9 25.7 0.00 0.00 0.00 32 950.7
20240722154502 36 207 14.5 20.9 0.00 0.00 0.00 33 950.7
20240722153200 36 242 11.3 20.9 0.00 0.00 0.00 34 950.7
20240722151606 36 278 11.3 17.7 0.00 0.00 0.00 33 950.8
20240722150056 36 207 12.9 16.1 0.00 0.00 0.00 32 950.7
20240722144557 36 197 11.3 17.7 0.00 0.00 0.00 33 950.7
20240722143050 36 229 8.0 16.1 0.00 0.00 0.00 33 950.6
20240722141611 36 9.7 20.9 0.00 0.00 0.00 33 950.4
20240722140049 35 8.0 16.1 0.00 0.00 0.00 34 950.3
20240722134549 36 182 11.3 20.9 0.00 0.00 0.00 34 950.2
20240722133047 35 136 14.5 20.9 0.00 0.00 0.00 34 950.1
20240722131549 35 129 8.0 17.7 0.00 0.00 0.00 34 950.1
20240722130047 35 158 11.3 22.5 0.00 0.00 0.00 34 949.7
20240722124547 35 153 9.7 16.1 0.00 0.00 0.00 34 949.6
20240722123045 35 144 9.7 14.5 0.00 0.00 0.00 34 949.5
20240722121550 35 150 6.4 14.5 0.00 0.00 0.00 33 949.4
20240722120050 35 115 6.4 12.9 0.00 0.00 0.00 32 949.4
20240722114542 35 120 6.4 9.7 0.00 0.00 0.00 32 949.3
20240722113040 35 150 3.2 6.4 0.00 0.00 0.00 32 949.2
20240722111543 35 4.8 11.3 0.00 0.00 0.00 31 949.2
20240722110037 36 208 1.6 4.8 0.00 0.00 0.00 30 949.0
20240722104536 36 3.2 9.7 0.00 0.00 0.00 28 948.9
20240722103041 36 113 3.2 11.3 0.00 0.00 0.00 27 949.0
20240722101535 36 109 11.3 17.7 0.00 0.00 0.00 27 949.0
20240722100035 36 105 11.3 22.5 0.00 0.00 0.00 27 949.1
20240722094531 37 6.4 17.7 0.00 0.00 0.00 26 949.4
20240722093030 37 9.7 14.5 0.00 0.00 0.00 26 949.7
20240722091528 37 72 12.9 17.7 0.00 0.00 0.00 27 949.9
20240722090026 37 84 4.8 12.9 0.00 0.00 0.00 29 950.1
20240722084526 37 79 6.4 11.3 0.00 0.00 0.00 29 950.4
20240722083023 36 4.8 12.9 0.00 0.00 0.00 30 950.4
20240722081529 36 30 6.4 22.5 0.00 0.00 0.00 31 950.5
20240722080022 36 9.7 30.6 0.00 0.00 0.00 32 950.6
20240722074521 36 37 16.1 29.0 0.00 0.00 0.00 31 950.7
20240722073015 37 30 8.0 12.9 0.00 0.00 0.00 31 950.8
20240722071511 37 108 4.8 20.9 0.00 0.00 0.00 31 950.4
20240722070015 36 206 11.3 20.9 0.00 0.00 0.00 31 949.6
20240722064516 37 151 12.9 27.4 0.00 0.00 0.00 31 949.3
20240722063007 37 143 8.0 17.7 0.00 0.00 0.00 31 949.3
20240722061503 37 178 16.1 30.6 0.00 0.00 0.00 31 949.0
20240722060003 37 143 16.1 25.7 0.00 0.00 0.00 30 949.0
20240722054502 37 144 11.3 25.7 0.00 0.00 0.00 30 949.7
20240722053002 37 221 12.9 32.2 0.00 0.00 0.00 30 949.6
20240722051501 37 206 20.9 27.4 0.00 0.00 0.00 30 949.2
20240722050101 39 243 9.7 22.5 0.00 0.00 0.00 27 948.9